Decoded Metar for LFBI (POITIERS in FRANCE) (IATA:PIS) | Meteo·Mobile Aviation Weather
aviador You're here:

LFBI Decoded Metar

POITIERS in FRANCE
Report Time2019-07-21 16:30:00
UTC Time2019-07-21 16:53:37
Flight Rules vfr VFR
Wind340° at 06 kt
W.Decomp.*RWY 03: 3.9 kt HW 4.5 kt LCW
Visibility9999 m
Phenomena:N/A
Clouds:N/A
Expected CloudBase > 6,800 ft AGL from Temp-Dew spread
CeilingNone
Temp29°C (ISA +15)
Dew Point12°C (35% RH)
Heat Index28.2°C
AAT27.5°C
QNH1022 hPa
Density Alt1,982 ft
Elevation394 ft
Report Wrong Elevation
Raw Report
METAR LFBI 211630Z AUTO 34006KT 250V030 CAVOK 29/12 Q1022 NOSIG=

Extra information for LFBI:More info

Metar Taf Metar & Taf Last 4 Metars F.Rules Stats Wind Profile Meteogram Temp Stats Airport Information Weather charts Add Link Nearby VenuesMetar ALERT Operation Metar Decoded Social comments